x

Olcott Harbor, Ny (olcn6) Weather Station

8:00pm - Wed 26th Nov 2014 All times are CST. -6 hours from GMT.

  • Wind
    16mph, 20mph gusts
  • Air Temp 34°f
  • Sea Pressure 1019.3mb
  • Olcott Harbor, Ny
  • Olcott Harbor, Ny

More Historic Weather Station data

Upgrade to MSW Pro to gain access to the past 30 days of data for over 8000 Wavebouys and Weather Stations around the globe.

Join Pro

Comparision Forecast

View Surf forecast
   
Wed 11/26 8:00pm 16 20 mph 1019.3mb 34f
7:50pm 18 22 mph 1019.3mb 34f
7:40pm 22 24 mph 1019mb 34f
7:30pm 18 22 mph 1019.3mb 34f
7:20pm 17 21 mph 1019.3mb 34f
7:10pm 17 21 mph 1019.3mb 34f
7:00pm 17 22 mph 1019.3mb 34f
6:50pm 16 21 mph 1019.6mb 34f
6:40pm 17 20 mph 1019.6mb 34f
6:30pm 17 21 mph 1019.6mb 34f
6:20pm 17 21 mph 1019.6mb 34f
6:10pm 18 21 mph 1019.6mb 34f
6:00pm 18 21 mph 1020mb 34f
5:50pm 17 21 mph 1020mb 34f
5:40pm 17 21 mph 1020mb 34f
5:30pm 17 21 mph 1020mb 34f
5:20pm 18 23 mph 1019.6mb 34f
5:10pm 18 23 mph 1020mb 35f
5:00pm 18 22 mph 1020mb 34f
4:50pm 20 22 mph 1020mb 35f
4:40pm 20 24 mph 1020mb 34f
4:30pm 18 23 mph 1020mb 34f
4:20pm 18 22 mph 1020mb 35f
4:10pm 20 23 mph 1020mb 35f
4:00pm 20 23 mph 1020mb 35f
3:50pm 20 23 mph 1020.3mb 35f
3:40pm 21 24 mph 1020.3mb 35f
3:30pm 21 23 mph 1020.3mb 35f
3:20pm 18 23 mph 1020.3mb 35f
3:10pm 20 23 mph 1020.3mb 35f
3:00pm 21 23 mph 1020.3mb 35f
2:50pm 18 23 mph 1020.7mb 35f
2:40pm 18 22 mph 1020.7mb 34f
2:30pm 20 22 mph 1021mb 34f
2:20pm 21 23 mph 1021mb 34f
2:10pm 21 22 mph 1021mb 33f
2:00pm 20 22 mph 1021mb 33f
1:50pm 14 15 mph 1021mb 33f
1:40pm 11 14 mph 1021.3mb 33f
1:30pm 7 10 mph 1021.3mb 33f
1:20pm 7 9 mph 1021.3mb 34f
1:10pm 8 11 mph 1021.7mb 34f
1:00pm 11 15 mph 1021.7mb 35f
12:50pm 13 15 mph 1021.7mb 35f
12:40pm 13 15 mph 1021.7mb 35f
12:30pm 6 10 mph 1022mb 36f
12:20pm 7 13 mph 1022mb 36f
12:10pm 8 11 mph 1021.7mb 36f
12:00pm 8 11 mph 1021.7mb 36f
11:50am 10 13 mph 1022mb 36f
11:40am 8 10 mph 1022mb 36f
11:30am 7 9 mph 1022mb 36f
11:20am 8 11 mph 1022mb 36f
11:10am 10 14 mph 1022.4mb 36f
11:00am 10 16 mph 1022.4mb 35f
10:50am 11 23 mph 1021.7mb 35f
10:40am 16 22 mph 1022mb 36f
10:30am 15 20 mph 1022.4mb 36f
10:20am 14 18 mph 1023mb 36f
10:10am 15 21 mph 1022.7mb 36f
10:00am 14 20 mph 1022.7mb 36f
9:50am 16 18 mph 1022.7mb 36f
9:40am 17 20 mph 1022.4mb 36f
9:30am 15 17 mph 1022.7mb 36f
9:20am 15 17 mph 1022.7mb 36f
9:10am 14 18 mph 1022.4mb 36f
9:00am 15 17 mph 1022.7mb 36f
8:50am 14 16 mph 1022.7mb 36f
8:40am 14 16 mph 1023mb 36f
8:30am 9 15 mph 1023.4mb 36f
8:20am 7 15 mph 1023mb 35f
8:10am 5 8 mph 1023.7mb 35f
8:00am 5 7 mph 1024mb 35f
7:50am 3 7 mph 1024.7mb 34f
7:40am 5 7 mph 1024.7mb 34f
7:30am 3 6 mph 1024.4mb 35f
7:20am 2 5 mph 1023.7mb 34f
7:10am 2 3 mph 1024.4mb 33f
7:00am 2
mph
1024.4mb 34f
6:50am 2
mph
1023.7mb 34f
6:40am 1 2 mph 1024mb 34f
6:30am 1 2 mph 1023.7mb 33f
6:20am 1 2 mph 1024.4mb 34f
6:10am  -  2 mph 1023mb 34f
6:00am 2 5 mph 1023.4mb 33f
5:50am 3 5 mph 1024mb 33f
5:40am 2 3 mph 1023.4mb 33f
5:30am 2 5 mph 1023.7mb 33f
5:20am 3 5 mph 1024.4mb 33f
5:10am 3 5 mph 1024mb 33f
5:00am 3 5 mph 1024mb 33f
4:50am 3 7 mph 1024.7mb 33f
4:40am 5 6 mph 1024.4mb 33f
4:30am 3 6 mph 1023.4mb 33f
4:20am 3 6 mph 1024mb 33f
4:10am 5 7 mph 1024mb 33f
4:00am 5 6 mph 1023.7mb 33f
3:50am 5 6 mph 1024mb 33f
3:40am 3 5 mph 1023.7mb 33f
3:30am 3 5 mph 1024mb 33f
3:20am 3 6 mph 1024mb 33f
3:10am 5 8 mph 1024.4mb 33f
3:00am 3 7 mph 1024.4mb 33f
2:50am 5 7 mph 1024.4mb 33f
2:40am 6 7 mph 1024mb 33f
2:30am 6 9 mph 1024mb 33f
2:20am 7 9 mph 1024.4mb 33f
2:10am 8 9 mph 1024mb 33f
2:00am 5 6 mph 1022.7mb 33f
1:50am 6 8 mph 1023.4mb 33f
1:40am 6 8 mph 1023.7mb 33f
1:30am 6 8 mph 1023.7mb 33f
1:20am 5 8 mph 1023.7mb 33f
1:10am 6 8 mph 1023.7mb 33f
1:00am 6 7 mph 1023.7mb 32f
12:50am 6 8 mph 1023.7mb 33f
12:40am 6 9 mph 1023.7mb 33f
12:30am 7 9 mph 1023.4mb 33f
12:20am 6 8 mph 1023.4mb 33f
12:10am 6 8 mph 1023.4mb 33f
12:00am 6 9 mph 1023.7mb 33f
Tue 11/25 11:50pm 6 11 mph 1023.4mb 33f
11:40pm 6 8 mph 1023.7mb 33f
11:30pm 7 11 mph 1024mb 34f
11:20pm 6 10 mph 1024mb 34f
11:10pm 6 8 mph 1023.7mb 34f
11:00pm 6 9 mph 1024mb 34f
10:50pm 7 11 mph 1023.7mb 34f
10:40pm 7 11 mph 1024mb 35f
10:30pm 7 10 mph 1024mb 35f
10:20pm 9 14 mph 1023.7mb 35f
10:10pm 9 14 mph 1023.7mb 36f
10:00pm 8 11 mph 1023.7mb 36f
9:50pm 8 13 mph 1023.7mb 36f
9:40pm 9 14 mph 1023.7mb 36f
9:30pm 10 14 mph 1023.4mb 36f
9:20pm 9 13 mph 1023mb 36f
9:10pm 8 13 mph 1023mb 36f
9:00pm 11 15 mph 1022.7mb 36f
8:50pm 9 13 mph 1022.7mb 36f
8:40pm 10 15 mph 1022.7mb 36f
8:30pm 13 16 mph 1022.4mb 36f
8:20pm 11 16 mph 1022.4mb 36f
8:10pm 11 17 mph 1022.4mb 36f
8:00pm 14 20 mph 1022mb 36f
7:50pm 15 18 mph 1022mb 36f
7:40pm 11 17 mph 1021.7mb 36f
7:30pm 13 17 mph 1022mb 36f
7:20pm 13 18 mph 1021.7mb 36f
7:10pm 11 18 mph 1021.7mb 36f
7:00pm 10 16 mph 1021.3mb 35f
6:50pm 10 20 mph 1021.3mb 35f
6:40pm 11 18 mph 1021mb 36f
6:30pm 16 22 mph 1021mb 36f
6:20pm 14 18 mph 1021mb 36f
6:10pm 14 18 mph 1020.7mb 36f
6:00pm 16 22 mph 1020.3mb 36f
5:50pm 13 18 mph 1020mb 36f
5:40pm 14 18 mph 1020mb 36f
5:30pm 13 23 mph 1020mb 36f
5:20pm 17 25 mph 1019.3mb 36f
5:10pm 18 33 mph 1019.6mb 37f
5:00pm 21 36 mph 1019mb 37f
4:50pm 24 36 mph 1018.6mb 37f
4:40pm 20 28 mph 1018.6mb 36f
4:30pm 21 30 mph 1018.6mb 36f
4:20pm 25 34 mph 1017.9mb 36f
4:10pm 21 43 mph 1018.3mb 37f
4:00pm 24 40 mph 1017.6mb 37f
3:50pm 31 40 mph 1017.3mb 37f
3:40pm 36 43 mph 1016.9mb 37f
3:30pm 34 39 mph 1016.3mb 37f
3:20pm 18 32 mph 1016.9mb 37f
3:10pm 25 37 mph 1016.6mb 37f
3:00pm 24 36 mph 1016.3mb 37f
2:50pm 20 32 mph 1016.6mb 37f
2:40pm 21 30 mph 1015.9mb 37f
2:30pm 18 26 mph 1016.3mb 37f
2:20pm 17 25 mph 1016.3mb 37f
2:10pm 17 31 mph 1015.9mb 37f
2:00pm 18 31 mph 1016.3mb 37f
1:50pm 21 33 mph 1015.6mb 37f
1:40pm 26 38 mph 1015.6mb 38f
1:30pm 23 31 mph 1015.6mb 38f
1:20pm 20 29 mph 1015.6mb 38f
1:10pm 18 33 mph 1015.2mb 38f
1:00pm 29 38 mph 1014.9mb 39f
12:50pm 31 40 mph 1014.2mb 39f
12:40pm 23 37 mph 1014.2mb 39f
12:30pm 22 37 mph 1013.9mb 40f
12:20pm 20 37 mph 1014.6mb 40f
12:10pm 20 33 mph 1014.2mb 40f
12:00pm 18 28 mph 1013.5mb 40f
11:50am 18 36 mph 1013.9mb 40f
11:40am 22 34 mph 1013.5mb 40f
11:30am 22 33 mph 1012.9mb 40f
11:20am 21 32 mph 1013.2mb 40f
11:10am 20 33 mph 1013.5mb 40f
11:00am 21 30 mph 1013.2mb 40f
10:50am 17 31 mph 1013.2mb 40f
10:40am 20 32 mph 1013.2mb 40f
10:30am 16 26 mph 1013.5mb 41f
10:20am 17 24 mph 1013.2mb 40f
10:10am 20 25 mph 1013.2mb 40f
10:00am 16 28 mph 1012.9mb 40f
9:50am 21 41 mph 1013.2mb 41f
9:40am 30 39 mph 1012.5mb 41f
9:30am 20 32 mph 1012.2mb 41f
9:20am 20 33 mph 1012.2mb 42f
9:10am 25 34 mph 1012.2mb 42f
9:00am 20 30 mph 1011.5mb 42f
8:50am 16 31 mph 1011.9mb 42f
8:40am 21 30 mph 1011.9mb 42f
8:30am 20 33 mph 1011.9mb 42f
8:20am 21 34 mph 1011.9mb 42f
8:10am 24 41 mph 1011.2mb 42f
8:00am 17 28 mph 1011.2mb 42f
7:50am 17 29 mph 1011.2mb 42f
7:40am 21 28 mph 1011.2mb 42f
7:30am 15 26 mph 1011.2mb 42f
7:20am 14 26 mph 1010.8mb 42f
7:10am 15 26 mph 1010.8mb 42f
7:00am 17 23 mph 1010.8mb 42f
6:50am 16 28 mph 1010.8mb 42f
6:40am 14 22 mph 1010.5mb 42f
6:30am 20 28 mph 1010.8mb 42f
6:20am 14 31 mph 1010.5mb 42f
6:10am 15 33 mph 1010.2mb 42f
6:00am 18 29 mph 1010.2mb 41f
5:50am 18 25 mph 1010.2mb 41f
5:40am 20 28 mph 1010.2mb 41f
5:30am 20 29 mph 1009.8mb 41f
5:20am 20 31 mph 1009.8mb 42f
5:10am 22 34 mph 1009.5mb 42f
5:00am 23 41 mph 1009.5mb 42f
4:50am 30 46 mph 1008.5mb 42f
4:40am 15 34 mph 1009.5mb 42f
4:30am 20 34 mph 1009.1mb 42f
4:20am 20 31 mph 1009.1mb 42f
4:10am 14 28 mph 1009.1mb 41f
4:00am 16 30 mph 1008.8mb 41f
3:50am 23 31 mph 1008.8mb 42f
3:40am 24 34 mph 1008.8mb 42f
3:30am 24 38 mph 1008.8mb 42f
3:20am 18 33 mph 1008.5mb 42f
3:10am 24 38 mph 1008.1mb 42f
3:00am 22 33 mph 1008.5mb 42f
2:50am 15 25 mph 1008.1mb 41f
2:40am 18 31 mph 1007.8mb 41f
2:30am 21 39 mph 1008.1mb 41f
2:20am 20 36 mph 1008.1mb 42f
2:10am 21 34 mph 1007.5mb 42f
2:00am 20 33 mph 1008.1mb 42f
1:50am 22 30 mph 1007.5mb 43f
1:40am 20 31 mph 1007.5mb 43f
1:30am 22 32 mph 1007.1mb 43f
1:20am 18 28 mph 1007.1mb 43f
1:10am 21 34 mph 1007.1mb 43f
1:00am 18 37 mph 1007.1mb 43f
12:50am 18 33 mph 1006.8mb 42f
12:40am 22 37 mph 1006.4mb 43f
12:30am 21 40 mph 1006.1mb 42f
12:20am 29 41 mph 1005.8mb 42f
12:10am 30 48 mph 1005.8mb 42f
12:00am 30 44 mph 1005.8mb 43f
Mon 11/24 11:50pm 32 45 mph 1005.4mb 43f
11:40pm 26 41 mph 1005.8mb 43f
11:30pm 26 37 mph 1005.8mb 44f
11:20pm 25 49 mph 1005.8mb 44f
11:10pm 26 40 mph 1005.4mb 44f
11:00pm 24 34 mph 1005.1mb 44f
10:50pm 26 37 mph 1004.7mb 44f
10:40pm 23 36 mph 1004.7mb 44f
10:30pm 28 44 mph 1004.4mb 44f
10:20pm 18 38 mph 1004.4mb 44f
10:10pm 20 39 mph 1004.4mb 44f
10:00pm 26 41 mph 1004.1mb 44f
9:50pm 31 41 mph 1003.4mb 45f
9:40pm 26 39 mph 1003.7mb 46f
9:30pm 29 37 mph 1002.7mb 46f
9:20pm 31 48 mph 1002.7mb 47f
9:10pm 30 44 mph 1002.4mb 46f
9:00pm 23 37 mph 1002.7mb 46f
8:50pm 24 46 mph 1002.7mb 46f
8:40pm 29 41 mph 1001.7mb 46f
8:30pm 26 39 mph 1002mb 46f
8:20pm 25 37 mph 1002mb 46f
8:10pm 28 38 mph 1002mb 46f
8:00pm 25 38 mph 1001.7mb 46f
7:50pm 25 37 mph 1002mb 46f
7:40pm 21 39 mph 1001.7mb 46f
7:30pm 24 32 mph 1001.4mb 46f
7:20pm 30 38 mph 1001mb 46f
7:10pm 22 40 mph 1001.4mb 46f
7:00pm 26 39 mph 1001mb 46f
6:50pm 24 40 mph 1000.3mb 47f
6:40pm 28 37 mph 1000.3mb 47f
6:30pm 25 40 mph 999.3mb 47f
6:20pm 28 39 mph 999.7mb 47f
6:10pm 23 38 mph 999.7mb 47f
6:00pm 32 44 mph 998.6mb 48f
5:50pm 24 52 mph 998.6mb 48f
5:40pm 36 54 mph 997.6mb 49f
5:30pm 32 46 mph 998mb 49f
5:20pm 32 57 mph 997.6mb 51f
5:10pm 34 54 mph 996.3mb 52f
5:00pm 30 52 mph 996.3mb 53f
4:50pm 31 46 mph 995.9mb 53f
4:40pm 32 47 mph 995.3mb 53f
4:30pm 25 48 mph 995.3mb 53f
4:20pm 26 46 mph 995.3mb 54f
4:10pm 28 39 mph 994.2mb 55f
3:00pm 16 32 mph 992.9mb 58f
2:50pm 17 34 mph 992.9mb 58f
2:40pm 21 31 mph 992.6mb 57f
2:30pm 23 36 mph 992.2mb 57f
2:20pm 21 34 mph 992.2mb 57f
2:10pm 24 32 mph 991.9mb 57f
2:00pm 18 33 mph 992.2mb 57f
1:50pm 23 39 mph 991.2mb 57f
1:40pm 20 33 mph 991.5mb 58f
1:30pm 24 37 mph 990.9mb 58f
1:20pm 28 41 mph 990.9mb 59f
1:10pm 28 36 mph 990.2mb 65f
1:00pm 20 33 mph 989.8mb 67f
12:50pm 23 37 mph 989.5mb 67f
12:40pm 18 36 mph 989.2mb 67f
12:30pm 17 32 mph 988.8mb 67f
12:20pm 18 33 mph 989.2mb 68f
12:10pm 18 26 mph 989.2mb 68f
12:00pm 16 29 mph 989.2mb 67f
11:50am 17 29 mph 989.2mb 67f
11:40am 20 32 mph 989.2mb 67f
11:30am 15 33 mph 989.2mb 67f
11:20am 17 31 mph 989.8mb 67f
11:10am 17 32 mph 989.8mb 67f
11:00am 20 31 mph 989.8mb 67f
10:50am 20 29 mph 989.8mb 66f
10:40am 14 31 mph 989.8mb 65f
10:30am 15 25 mph 990.5mb 64f
10:20am 15 29 mph 990.9mb 64f
10:10am 17 29 mph 990.5mb 64f
10:00am 17 29 mph 990.9mb 64f
9:50am 15 30 mph 991.2mb 64f
9:40am 18 29 mph 991.2mb 63f
9:30am 16 31 mph 991.5mb 63f
9:20am 14 26 mph 991.9mb 63f
9:10am 18 28 mph 991.5mb 63f
9:00am 16 28 mph 991.9mb 63f
8:50am 16 30 mph 991.5mb 63f
8:40am 15 28 mph 991.9mb 63f
8:30am 17 31 mph 991.5mb 63f
8:20am 16 28 mph 991.5mb 62f
8:10am 16 32 mph 991.5mb 63f
8:00am 18 29 mph 991.5mb 62f
7:50am 17 31 mph 991.5mb 62f
7:40am 20 29 mph 991.5mb 62f
7:30am 11 25 mph 991.5mb 61f
7:20am 13 28 mph 991.5mb 61f
7:10am 14 31 mph 991.5mb 61f
7:00am 21 30 mph 991.2mb 61f
6:50am 15 29 mph 991.2mb 61f
6:40am 18 33 mph 990.9mb 61f
6:30am 18 30 mph 991.2mb 61f
6:20am 18 33 mph 990.9mb 61f
6:10am 14 31 mph 991.2mb 61f
6:00am 17 31 mph 991.2mb 61f
5:50am 18 31 mph 990.9mb 60f
5:40am 14 33 mph 990.9mb 60f
5:30am 17 26 mph 990.9mb 60f
5:20am 15 23 mph 991.2mb 59f
5:10am 18 24 mph 990.9mb 59f
5:00am 17 24 mph 990.9mb 58f
4:50am 11 22 mph 991.2mb 58f
4:40am 15 24 mph 991.2mb 57f
4:30am 15 23 mph 991.2mb 57f
4:20am 14 25 mph 991.5mb 57f
4:10am 13 21 mph 991.5mb 57f
4:00am 13 25 mph 991.5mb 57f
3:50am 16 25 mph 991.9mb 57f
3:40am 17 25 mph 991.9mb 56f
3:30am 18 25 mph 992.2mb 56f
3:20am 18 24 mph 992.2mb 56f
3:10am 16 22 mph 992.6mb 55f
3:00am 15 23 mph 992.9mb 55f
2:50am 14 21 mph 993.2mb 54f
2:40am 13 21 mph 993.6mb 53f
2:30am 11 18 mph 993.9mb 53f
2:20am 10 18 mph 993.9mb 52f
2:10am 10 16 mph 994.2mb 52f
2:00am 13 22 mph 994.9mb 52f
1:50am 13 18 mph 994.9mb 51f
1:40am 11 22 mph 995.3mb 51f
1:30am 14 22 mph 995.3mb 50f
1:20am 13 16 mph 995.9mb 50f
1:10am 10 17 mph 996.6mb 50f
1:00am 9 16 mph 996.6mb 50f
12:50am 10 18 mph 997mb 50f
12:40am 13 17 mph 997.6mb 51f
12:30am 11 17 mph 998.3mb 51f
12:20am 11 18 mph 998.6mb 51f
12:10am 10 17 mph 999mb 51f
12:00am 10 18 mph 999.7mb 51f
Sun 11/23 11:50pm 10 18 mph 1000mb 51f
11:40pm 14 20 mph 1000.3mb 51f
11:30pm 9 16 mph 1001mb 52f
11:20pm 10 17 mph 1001.4mb 53f
11:10pm 13 17 mph 1002mb 54f
11:00pm 9 16 mph 1002.4mb 55f
10:50pm 11 20 mph 1002.7mb 55f
10:40pm 11 18 mph 1003mb 55f
10:30pm 7 14 mph 1003.4mb 55f
10:20pm 8 13 mph 1003.4mb 55f
10:10pm 6 15 mph 1003.7mb 55f
10:00pm 7 14 mph 1003.7mb 55f
9:50pm 8 16 mph 1004.4mb 55f
9:40pm 8 11 mph 1004.4mb 55f
9:30pm 8 13 mph 1005.1mb 54f
9:20pm 7 11 mph 1005.1mb 53f
9:10pm 8 11 mph 1005.1mb 53f
9:00pm 7 9 mph 1005.4mb 49f
8:50pm 7 10 mph 1006.1mb 46f
8:40pm 8 9 mph 1006.1mb 47f
8:30pm 7 9 mph 1006.4mb 50f
8:20pm 8 9 mph 1006.4mb 50f
8:10pm 7 9 mph 1006.8mb 50f
8:00pm 8 9 mph 1007.1mb 50f
7:50pm 7 11 mph 1007.5mb 50f
7:40pm 7 10 mph 1007.8mb 50f
7:30pm 7 9 mph 1007.8mb 49f
7:20pm 7 9 mph 1008.1mb 49f
7:10pm 7 8 mph 1008.5mb 49f
7:00pm 6 8 mph 1008.8mb 48f
6:50pm 7
mph
1009.5mb 48f
6:40pm 5 7 mph 1009.5mb 47f
6:30pm 6 9 mph 1009.8mb 46f
6:20pm 9
mph
1009.8mb 44f
6:10pm 8
mph
1009.8mb 43f
6:00pm 8
mph
1009.8mb 43f
5:50pm 6
mph
1010.2mb 48f
5:40pm 6 7 mph 1010.2mb 48f
5:30pm 5 6 mph 1010.5mb 49f
5:20pm 6 7 mph 1010.8mb 49f
5:10pm 6 7 mph 1010.8mb 49f
5:00pm 6 8 mph 1011.2mb 50f
4:50pm 6 7 mph 1010.8mb 50f
4:40pm 5 8 mph 1011.2mb 50f
4:30pm 6 8 mph 1011.2mb 51f
4:20pm 6 8 mph 1011.5mb 50f
4:10pm 5 7 mph 1011.9mb 50f
4:00pm 5 7 mph 1012.2mb 51f
3:50pm 6 8 mph 1012.2mb 51f
3:40pm 6 9 mph 1012.5mb 51f
3:30pm 6 10 mph 1012.9mb 51f
3:20pm 6 9 mph 1012.5mb 51f
3:10pm 6 10 mph 1012.5mb 51f
3:00pm 7 10 mph 1012.5mb 52f
2:50pm 7 9 mph 1012.9mb 52f
2:40pm 5 10 mph 1012.9mb 52f
2:30pm 7 11 mph 1013.2mb 52f
2:20pm 7 9 mph 1013.5mb 52f
2:10pm 7 9 mph 1013.5mb 52f
2:00pm 5 8 mph 1013.9mb 52f
1:50pm 5 10 mph 1013.9mb 52f
1:40pm 6 9 mph 1014.2mb 51f
1:30pm 5 10 mph 1014.6mb 51f
1:20pm 7 11 mph 1014.6mb 51f
1:10pm 6 11 mph 1014.6mb 51f
1:00pm 8 14 mph 1014.9mb 51f
12:50pm 6 14 mph 1014.9mb 51f
12:40pm 9 14 mph 1015.2mb 51f
12:30pm 8 15 mph 1015.2mb 51f
12:20pm 9 14 mph 1014.9mb 50f
12:10pm 6 14 mph 1015.2mb 50f
12:00pm 10 14 mph 1015.6mb 49f
11:50am 9 14 mph 1015.9mb 49f
11:40am 8 14 mph 1016.3mb 48f
11:30am 10 14 mph 1016.6mb 48f
11:20am 9 13 mph 1016.9mb 48f
11:10am 10 16 mph 1016.6mb 48f
11:00am 11 20 mph 1016.9mb 48f
10:50am 13 21 mph 1017.3mb 48f
10:40am 13 23 mph 1016.9mb 49f
10:30am 13 24 mph 1017.3mb 49f
10:20am 9 18 mph 1017.3mb 50f
10:10am 14 17 mph 1017.3mb 51f
10:00am 13 20 mph 1017.3mb 50f
9:50am 10 20 mph 1017.3mb 51f
9:40am 14 20 mph 1017.3mb 51f
9:30am 10 20 mph 1017.6mb 51f
9:20am 10 21 mph 1017.3mb 51f
9:10am 10 16 mph 1017.3mb 51f
9:00am 10 20 mph 1017.3mb 51f
8:50am 8 15 mph 1016.9mb 51f
8:40am 8 13 mph 1017.3mb 51f
8:30am 10 16 mph 1017.3mb 51f
8:20am 9 14 mph 1017.3mb 51f
8:10am 7 11 mph 1017.3mb 51f
8:00am 6 14 mph 1017.3mb 51f
7:50am 8 11 mph 1017.3mb 51f
7:40am 6 10 mph 1017.3mb 51f
7:30am 7 11 mph 1017.3mb 50f
7:20am 7 11 mph 1017.3mb 50f
7:10am 7 11 mph 1017.3mb 50f
7:00am 8 13 mph 1017.3mb 50f
6:50am 7 10 mph 1016.9mb 50f
6:40am 7 10 mph 1016.9mb 50f
6:30am 6 8 mph 1016.9mb 50f
6:20am 5 8 mph 1016.9mb 50f
6:10am 7 10 mph 1016.9mb 50f
6:00am 7 11 mph 1016.6mb 50f
5:50am 6 13 mph 1016.6mb 50f
5:40am 7 11 mph 1016.6mb 50f
5:30am 6 11 mph 1016.6mb 50f
5:20am 8 11 mph 1016.6mb 50f
5:10am 6 10 mph 1016.6mb 50f
5:00am 6 8 mph 1016.3mb 49f
4:50am 6 8 mph 1015.9mb 49f
4:40am 6 9 mph 1015.9mb 49f
4:30am 5 10 mph 1015.9mb 50f
4:20am 6 10 mph 1015.9mb 50f
4:10am 8 13 mph 1015.9mb 50f
4:00am 8 13 mph 1015.6mb 50f
3:50am 10 17 mph 1015.6mb 50f
3:40am 10 15 mph 1015.6mb 50f
3:30am 10 16 mph 1015.6mb 50f
3:20am 10 15 mph 1015.6mb 50f
3:10am 10 15 mph 1015.6mb 49f